createdAt,value
2023-01-26T00:01:36.948Z,13.53
2023-01-26T00:04:03.513Z,14.90
2023-01-26T00:06:30.041Z,17.20
2023-01-26T00:08:57.374Z,15.63
2023-01-26T00:11:24.378Z,15.17
2023-01-26T00:13:50.868Z,14.47
2023-01-26T00:16:17.435Z,14.63
2023-01-26T00:18:43.945Z,12.97
2023-01-26T00:21:10.431Z,15.47
2023-01-26T00:23:37.006Z,16.33
2023-01-26T00:26:03.544Z,16.90
2023-01-26T00:28:30.057Z,15.27
2023-01-26T00:30:56.591Z,15.33
2023-01-26T00:33:23.059Z,17.07
2023-01-26T00:35:49.505Z,15.00
2023-01-26T00:38:15.991Z,13.70
2023-01-26T00:40:42.493Z,16.53
2023-01-26T00:43:09.024Z,13.80
2023-01-26T00:45:35.900Z,16.63
2023-01-26T00:48:02.414Z,17.00
2023-01-26T00:50:28.888Z,14.80
2023-01-26T00:52:55.483Z,16.30
2023-01-26T00:55:21.946Z,16.40
2023-01-26T00:57:48.412Z,14.37
2023-01-26T01:00:16.630Z,18.77
2023-01-26T01:02:43.122Z,16.73
2023-01-26T01:05:09.617Z,15.70
2023-01-26T01:07:36.131Z,15.37
2023-01-26T01:10:02.600Z,17.77
2023-01-26T01:12:29.089Z,16.87
2023-01-26T01:14:55.585Z,15.47
2023-01-26T01:17:22.131Z,15.67
2023-01-26T01:19:48.605Z,16.13
2023-01-26T01:22:15.062Z,14.80
2023-01-26T01:24:41.541Z,16.43
2023-01-26T01:27:08.030Z,14.53
2023-01-26T01:29:34.744Z,14.73
2023-01-26T01:32:01.250Z,15.50
2023-01-26T01:34:27.837Z,14.70
2023-01-26T01:36:54.297Z,13.60
2023-01-26T01:39:20.801Z,15.27
2023-01-26T01:41:47.364Z,13.43
2023-01-26T01:44:13.867Z,13.63
2023-01-26T01:46:40.458Z,15.43
2023-01-26T01:49:07.007Z,15.27
2023-01-26T01:51:33.895Z,16.27
2023-01-26T01:54:00.473Z,15.47
2023-01-26T01:56:26.971Z,16.10
2023-01-26T01:58:53.728Z,15.17
2023-01-26T02:01:20.265Z,16.40
2023-01-26T02:03:46.906Z,16.97
2023-01-26T02:06:13.678Z,13.97
2023-01-26T02:08:40.225Z,15.07
2023-01-26T02:11:06.746Z,15.10
2023-01-26T02:13:33.238Z,16.37
2023-01-26T02:15:59.771Z,18.40
2023-01-26T02:18:26.358Z,17.30
2023-01-26T02:20:52.913Z,17.10
2023-01-26T02:23:19.960Z,18.30
2023-01-26T02:25:46.434Z,18.20
2023-01-26T02:28:12.891Z,17.97
2023-01-26T02:30:39.491Z,17.10
2023-01-26T02:33:05.993Z,14.93
2023-01-26T02:35:32.497Z,15.67
2023-01-26T02:37:58.986Z,13.53
2023-01-26T02:40:25.468Z,15.87
2023-01-26T02:42:55.012Z,16.00
2023-01-26T02:45:21.509Z,15.40
2023-01-26T02:47:48.056Z,16.20
2023-01-26T02:50:14.612Z,16.70
2023-01-26T02:52:41.112Z,16.27
2023-01-26T02:55:22.991Z,18.07
2023-01-26T02:57:49.482Z,18.90
2023-01-26T03:00:16.050Z,18.87
2023-01-26T03:02:42.568Z,17.07
2023-01-26T03:05:09.174Z,15.27
2023-01-26T03:07:35.673Z,13.80
2023-01-26T03:10:02.207Z,15.40
2023-01-26T03:12:28.680Z,16.50
2023-01-26T03:15:13.892Z,18.10
2023-01-26T03:17:40.376Z,16.47
2023-01-26T03:20:25.722Z,16.27
2023-01-26T03:23:10.820Z,18.07
2023-01-26T03:25:56.122Z,15.80
2023-01-26T03:28:22.960Z,15.07
2023-01-26T03:30:49.625Z,15.90
2023-01-26T03:33:16.171Z,16.10
2023-01-26T03:35:42.660Z,17.50
2023-01-26T03:38:09.134Z,17.50
2023-01-26T03:40:54.573Z,18.90
2023-01-26T03:43:40.364Z,15.97
2023-01-26T03:46:25.460Z,14.90
2023-01-26T03:49:10.793Z,14.80
2023-01-26T03:51:55.942Z,15.13
2023-01-26T03:54:41.416Z,15.80
2023-01-26T03:57:07.919Z,14.00
2023-01-26T03:59:40.634Z,14.37
2023-01-26T04:02:26.006Z,12.53
2023-01-26T04:05:11.145Z,15.90
2023-01-26T04:07:56.484Z,14.00
2023-01-26T04:10:23.066Z,14.73
2023-01-26T04:13:08.053Z,15.60
2023-01-26T04:15:53.407Z,11.70
2023-01-26T04:18:38.452Z,14.13
2023-01-26T04:21:23.439Z,12.83
2023-01-26T04:23:49.943Z,13.37
2023-01-26T04:26:16.517Z,15.80
2023-01-26T04:28:43.052Z,15.33
2023-01-26T04:31:09.616Z,16.33
2023-01-26T04:33:36.091Z,15.10
2023-01-26T04:36:02.618Z,14.80
2023-01-26T04:38:29.138Z,15.00
2023-01-26T04:40:55.685Z,15.17
2023-01-26T04:43:22.146Z,15.97
2023-01-26T04:45:48.648Z,15.17
2023-01-26T04:48:15.169Z,13.10
2023-01-26T04:50:41.645Z,16.87
2023-01-26T04:53:08.169Z,13.40
2023-01-26T04:55:34.671Z,12.80
2023-01-26T04:58:02.117Z,15.60
2023-01-26T05:00:29.104Z,14.20
2023-01-26T05:02:55.577Z,13.43
2023-01-26T05:05:22.144Z,14.07
2023-01-26T05:07:50.248Z,12.10
2023-01-26T05:10:16.959Z,15.23
2023-01-26T05:12:43.617Z,13.17
2023-01-26T05:15:10.114Z,12.40
2023-01-26T05:17:36.559Z,13.03
2023-01-26T05:20:03.039Z,11.77
2023-01-26T05:22:29.594Z,12.13
2023-01-26T05:24:56.091Z,12.13
2023-01-26T05:27:22.650Z,11.00
2023-01-26T05:29:49.585Z,12.20
2023-01-26T05:32:16.136Z,10.37
2023-01-26T05:34:42.604Z,10.87
2023-01-26T05:37:09.120Z,10.30
2023-01-26T05:39:35.605Z,11.77
2023-01-26T05:42:02.078Z,11.47
2023-01-26T05:44:29.603Z,11.40
2023-01-26T05:46:56.117Z,11.83
2023-01-26T05:49:22.619Z,11.90
2023-01-26T05:51:49.172Z,11.70
2023-01-26T05:54:15.668Z,11.57
2023-01-26T05:56:42.218Z,14.37
2023-01-26T05:59:08.671Z,12.23
2023-01-26T06:01:35.247Z,11.33
2023-01-26T06:04:01.950Z,12.93
2023-01-26T06:06:28.479Z,13.57
2023-01-26T06:08:54.927Z,12.67
2023-01-26T06:11:21.410Z,11.33
2023-01-26T06:13:48.704Z,11.57
2023-01-26T06:16:15.245Z,11.63
2023-01-26T06:18:41.817Z,11.90
2023-01-26T06:21:08.365Z,9.13
2023-01-26T06:23:34.985Z,10.67
2023-01-26T06:26:01.561Z,9.00
2023-01-26T06:28:28.077Z,12.90
2023-01-26T06:30:54.604Z,12.40
2023-01-26T06:33:22.308Z,11.47
2023-01-26T06:35:48.836Z,10.87
2023-01-26T06:38:15.489Z,9.33
2023-01-26T06:40:42.014Z,10.17
2023-01-26T06:43:08.555Z,8.20
2023-01-26T06:45:35.072Z,8.20
2023-01-26T06:48:01.589Z,9.80
2023-01-26T06:50:28.128Z,8.13
2023-01-26T06:52:54.628Z,10.23
2023-01-26T06:55:21.114Z,8.87
2023-01-26T06:57:47.609Z,8.30
2023-01-26T07:00:14.077Z,7.27
2023-01-26T07:02:40.635Z,8.87
2023-01-26T07:05:07.139Z,8.40
2023-01-26T07:07:33.684Z,8.90
2023-01-26T07:10:00.217Z,10.23
2023-01-26T07:12:26.733Z,9.13
2023-01-26T07:14:53.257Z,9.60
2023-01-26T07:17:19.818Z,9.80
2023-01-26T07:19:46.287Z,12.07
2023-01-26T07:22:12.773Z,9.47
2023-01-26T07:24:39.298Z,10.13
2023-01-26T07:27:05.812Z,9.40
2023-01-26T07:29:32.297Z,9.07
2023-01-26T07:31:58.839Z,8.20
2023-01-26T07:34:25.338Z,7.90
2023-01-26T07:36:51.826Z,9.63
2023-01-26T07:39:18.438Z,8.30
2023-01-26T07:41:47.246Z,8.40
2023-01-26T07:44:13.879Z,10.50
2023-01-26T07:46:41.337Z,10.77
2023-01-26T07:49:07.911Z,11.63
2023-01-26T07:51:34.513Z,9.53
2023-01-26T07:54:01.284Z,9.60
2023-01-26T07:56:27.768Z,9.23
2023-01-26T07:58:54.305Z,9.57
2023-01-26T08:01:20.875Z,11.07
2023-01-26T08:03:47.445Z,8.80
2023-01-26T08:06:14.758Z,7.83
2023-01-26T08:08:42.311Z,8.53
2023-01-26T08:11:08.821Z,10.70
2023-01-26T08:13:36.241Z,7.43
2023-01-26T08:16:02.949Z,8.50
2023-01-26T08:18:29.725Z,8.67
2023-01-26T08:20:56.287Z,10.90
2023-01-26T08:23:22.861Z,11.33
2023-01-26T08:25:49.375Z,10.30
2023-01-26T08:28:15.957Z,11.20
2023-01-26T08:30:42.683Z,10.70
2023-01-26T08:33:09.201Z,12.77
2023-01-26T08:35:35.719Z,11.17
2023-01-26T08:38:02.403Z,11.93
2023-01-26T08:40:28.950Z,12.20
2023-01-26T08:42:55.521Z,17.27
2023-01-26T08:45:22.025Z,10.53
2023-01-26T08:47:48.580Z,13.70
2023-01-26T08:50:15.136Z,13.17
2023-01-26T08:52:41.674Z,11.03
2023-01-26T08:55:08.168Z,11.70
2023-01-26T08:57:34.752Z,10.50
2023-01-26T09:00:01.314Z,10.70
2023-01-26T09:02:28.669Z,11.20
2023-01-26T09:04:55.253Z,10.60
2023-01-26T09:07:21.775Z,10.53
2023-01-26T09:09:48.289Z,10.17
2023-01-26T09:12:14.771Z,9.50
2023-01-26T09:14:41.834Z,11.47
2023-01-26T09:17:08.335Z,11.27
2023-01-26T09:19:34.836Z,11.40
2023-01-26T09:22:01.352Z,12.13
2023-01-26T09:24:27.910Z,10.80
2023-01-26T09:26:54.405Z,13.00
2023-01-26T09:29:20.960Z,11.27
2023-01-26T09:31:47.592Z,13.17
2023-01-26T09:34:14.127Z,12.93
2023-01-26T09:36:41.597Z,13.33
2023-01-26T09:39:08.399Z,14.67
2023-01-26T09:41:35.121Z,12.70
2023-01-26T09:44:01.642Z,13.97
2023-01-26T09:46:28.341Z,11.43
2023-01-26T09:48:54.907Z,12.37
2023-01-26T09:51:23.174Z,11.97
2023-01-26T09:53:49.702Z,14.63
2023-01-26T09:56:16.319Z,13.80
2023-01-26T09:58:43.742Z,12.70
2023-01-26T10:01:10.250Z,11.70
2023-01-26T10:03:36.774Z,11.10
2023-01-26T10:06:03.366Z,13.50
2023-01-26T10:08:29.926Z,13.17
2023-01-26T10:10:56.452Z,13.40
2023-01-26T10:13:23.257Z,11.33
2023-01-26T10:15:49.807Z,12.40
2023-01-26T10:18:16.324Z,10.43
2023-01-26T10:20:42.896Z,12.20
2023-01-26T10:23:09.375Z,12.80
2023-01-26T10:25:36.933Z,12.70
2023-01-26T10:28:03.463Z,11.63
2023-01-26T10:30:30.027Z,12.10
2023-01-26T10:32:56.550Z,15.00
2023-01-26T10:35:23.100Z,12.63
2023-01-26T10:37:49.724Z,12.37
2023-01-26T10:40:17.307Z,11.20
2023-01-26T10:42:43.814Z,12.13
2023-01-26T10:45:10.356Z,11.60
2023-01-26T10:47:36.863Z,12.70
2023-01-26T10:50:03.454Z,11.93
2023-01-26T10:52:29.996Z,14.20
2023-01-26T10:54:56.527Z,13.93
2023-01-26T10:57:23.017Z,12.20
2023-01-26T10:59:49.528Z,10.90
2023-01-26T11:02:16.471Z,11.30
2023-01-26T11:04:42.940Z,12.27
2023-01-26T11:07:10.037Z,11.60
2023-01-26T11:09:36.526Z,13.17
2023-01-26T11:12:03.562Z,14.43
2023-01-26T11:14:30.102Z,11.73
2023-01-26T11:16:56.606Z,11.73
2023-01-26T11:19:23.883Z,18.40
2023-01-26T11:21:50.373Z,11.97
2023-01-26T11:24:20.997Z,12.43
2023-01-26T11:26:47.515Z,10.47
2023-01-26T11:29:14.052Z,12.90
2023-01-26T11:31:40.629Z,10.77
2023-01-26T11:34:07.239Z,9.57
2023-01-26T11:36:34.488Z,10.70
2023-01-26T11:39:00.970Z,11.63
2023-01-26T11:41:27.458Z,11.50
2023-01-26T11:43:53.951Z,12.70
2023-01-26T11:46:21.133Z,11.20
2023-01-26T11:48:47.626Z,10.00
2023-01-26T11:51:14.122Z,11.03
2023-01-26T11:53:40.692Z,14.17
2023-01-26T11:56:07.198Z,11.00
2023-01-26T11:58:33.786Z,10.60
2023-01-26T12:01:00.289Z,13.57
2023-01-26T12:03:26.789Z,11.40
2023-01-26T12:05:53.384Z,11.20
2023-01-26T12:08:19.891Z,9.80
2023-01-26T12:10:46.387Z,10.20
2023-01-26T12:13:12.914Z,10.50
2023-01-26T12:15:39.434Z,10.70
2023-01-26T12:18:05.976Z,9.77
2023-01-26T12:20:32.479Z,8.40
2023-01-26T12:22:59.386Z,10.17
2023-01-26T12:25:25.926Z,8.93
2023-01-26T12:27:52.430Z,9.13
2023-01-26T12:30:19.017Z,7.83
2023-01-26T12:32:45.586Z,8.50
2023-01-26T12:35:12.592Z,10.33
2023-01-26T12:37:39.275Z,8.30
2023-01-26T12:40:07.375Z,8.40
2023-01-26T12:42:33.872Z,10.63
2023-01-26T12:45:01.724Z,9.37
2023-01-26T12:47:28.290Z,7.97
2023-01-26T12:49:54.832Z,8.90
2023-01-26T12:52:21.360Z,8.33
2023-01-26T12:54:47.867Z,8.90
2023-01-26T12:57:15.000Z,12.40
2023-01-26T12:59:47.860Z,9.50
2023-01-26T13:02:15.297Z,8.37
2023-01-26T13:04:42.019Z,8.27
2023-01-26T13:07:08.527Z,10.37
2023-01-26T13:09:35.212Z,8.97
2023-01-26T13:12:01.727Z,7.13
2023-01-26T13:14:28.268Z,8.63
2023-01-26T13:16:54.878Z,6.90
2023-01-26T13:19:21.344Z,7.60
2023-01-26T13:21:47.894Z,7.17
2023-01-26T13:24:14.382Z,6.80
2023-01-26T13:26:41.229Z,7.10
2023-01-26T13:29:07.690Z,6.87
2023-01-26T13:31:34.328Z,7.00
2023-01-26T13:34:00.906Z,7.47
2023-01-26T13:36:27.360Z,7.83
2023-01-26T13:38:53.860Z,8.33
2023-01-26T13:41:20.760Z,6.73
2023-01-26T13:43:47.279Z,10.60
2023-01-26T13:46:13.931Z,8.40
2023-01-26T13:48:40.628Z,8.90
2023-01-26T13:51:07.088Z,9.77
2023-01-26T13:53:33.730Z,9.10
2023-01-26T13:56:00.347Z,7.30
2023-01-26T13:58:27.660Z,9.37
2023-01-26T14:00:54.163Z,10.80
2023-01-26T14:03:20.931Z,9.10
2023-01-26T14:05:47.439Z,7.10
2023-01-26T14:08:13.951Z,7.60
2023-01-26T14:10:40.467Z,8.50
2023-01-26T14:13:06.973Z,6.90
2023-01-26T14:15:33.534Z,7.37
2023-01-26T14:18:00.088Z,7.20
2023-01-26T14:20:26.566Z,7.37
2023-01-26T14:22:53.098Z,6.13
2023-01-26T14:25:19.918Z,8.50
2023-01-26T14:27:46.428Z,8.43
2023-01-26T14:30:13.152Z,8.53
2023-01-26T14:32:39.863Z,7.40
2023-01-26T14:35:06.385Z,7.67
2023-01-26T14:37:32.866Z,6.90
2023-01-26T14:39:59.389Z,7.20
2023-01-26T14:42:25.864Z,6.63
2023-01-26T14:44:52.366Z,5.53
2023-01-26T14:47:18.879Z,6.20
2023-01-26T14:49:45.378Z,6.03
2023-01-26T14:52:11.857Z,6.40
2023-01-26T14:54:39.448Z,7.00
2023-01-26T14:57:07.140Z,5.00
2023-01-26T14:59:34.736Z,7.13
2023-01-26T15:02:01.322Z,6.97
2023-01-26T15:04:27.896Z,5.97
2023-01-26T15:06:54.356Z,5.63
2023-01-26T15:09:20.969Z,7.97
2023-01-26T15:12:13.837Z,5.97
2023-01-26T15:14:40.325Z,6.57
2023-01-26T15:17:06.845Z,8.10
2023-01-26T15:19:33.347Z,6.37
2023-01-26T15:21:59.897Z,6.37
2023-01-26T15:24:26.499Z,6.80
2023-01-26T15:26:52.980Z,6.47
2023-01-26T15:29:19.465Z,8.73
2023-01-26T15:31:46.129Z,9.50
2023-01-26T15:34:12.698Z,7.23
2023-01-26T15:36:39.190Z,7.30
2023-01-26T15:39:05.684Z,8.40
2023-01-26T15:41:32.171Z,7.53
2023-01-26T15:43:59.474Z,6.90
2023-01-26T15:46:26.499Z,6.80
2023-01-26T15:48:53.025Z,7.13
2023-01-26T15:51:19.562Z,6.20
2023-01-26T15:53:46.060Z,5.87
2023-01-26T15:56:12.548Z,6.50
2023-01-26T15:58:39.125Z,7.07
2023-01-26T16:01:05.767Z,8.13
2023-01-26T16:03:32.299Z,9.50
2023-01-26T16:05:58.766Z,8.30
2023-01-26T16:08:25.266Z,7.30
2023-01-26T16:10:51.781Z,7.57
2023-01-26T16:13:18.262Z,8.30
2023-01-26T16:15:44.852Z,7.60
2023-01-26T16:18:11.400Z,7.03
2023-01-26T16:20:37.863Z,6.40
2023-01-26T16:23:04.410Z,8.33
2023-01-26T16:25:30.901Z,7.70
2023-01-26T16:27:57.376Z,7.03
2023-01-26T16:30:24.101Z,6.90
2023-01-26T16:32:50.745Z,9.20
2023-01-26T16:35:17.342Z,9.43
2023-01-26T16:37:43.832Z,6.73
2023-01-26T16:40:10.337Z,8.07
2023-01-26T16:42:36.849Z,6.60
2023-01-26T16:45:03.395Z,5.50
2023-01-26T16:47:32.401Z,6.63
2023-01-26T16:49:58.940Z,6.73
2023-01-26T16:52:25.409Z,7.63
2023-01-26T16:54:53.876Z,7.90
2023-01-26T16:57:20.623Z,6.23
2023-01-26T16:59:47.174Z,9.40
2023-01-26T17:02:13.679Z,7.77
2023-01-26T17:04:40.225Z,7.07
2023-01-26T17:07:06.757Z,5.30
2023-01-26T17:09:33.275Z,6.20
2023-01-26T17:11:59.798Z,6.37
2023-01-26T17:14:26.343Z,4.87
2023-01-26T17:16:52.864Z,5.70
2023-01-26T17:19:19.325Z,5.40
2023-01-26T17:21:45.797Z,5.63
2023-01-26T17:24:12.361Z,6.10
2023-01-26T17:26:39.755Z,6.27
2023-01-26T17:29:06.300Z,4.83
2023-01-26T17:31:32.865Z,29.73
2023-01-26T17:33:59.372Z,14.13
2023-01-26T17:36:25.891Z,7.30
2023-01-26T17:38:53.059Z,9.43
2023-01-26T17:41:19.549Z,8.23
2023-01-26T17:43:47.604Z,7.53
2023-01-26T17:46:14.117Z,8.67
2023-01-26T17:48:40.630Z,7.40
2023-01-26T17:51:07.204Z,7.17
2023-01-26T17:53:33.707Z,6.40
2023-01-26T17:56:00.253Z,6.47
2023-01-26T17:58:26.752Z,6.53
2023-01-26T18:00:53.376Z,6.70
2023-01-26T18:03:25.984Z,7.27
2023-01-26T18:05:52.525Z,6.30
2023-01-26T18:08:19.121Z,6.90
2023-01-26T18:10:45.599Z,5.90
2023-01-26T18:13:12.089Z,7.90
2023-01-26T18:15:38.644Z,5.03
2023-01-26T18:18:06.415Z,7.07
2023-01-26T18:20:32.902Z,6.20
2023-01-26T18:23:00.096Z,6.60
2023-01-26T18:25:26.594Z,6.37
2023-01-26T18:27:53.113Z,5.57
2023-01-26T18:30:19.592Z,6.87
2023-01-26T18:32:46.124Z,6.47
2023-01-26T18:35:12.850Z,6.13
2023-01-26T18:37:39.614Z,8.77
2023-01-26T18:40:07.895Z,8.20
2023-01-26T18:42:34.444Z,8.30
2023-01-26T18:45:01.320Z,8.77
2023-01-26T18:47:28.125Z,8.77
2023-01-26T18:49:54.671Z,7.00
2023-01-26T18:52:21.159Z,8.80
2023-01-26T18:54:47.698Z,8.80
2023-01-26T18:57:14.305Z,7.40
2023-01-26T18:59:40.789Z,6.60
2023-01-26T19:02:07.365Z,6.90
2023-01-26T19:04:33.924Z,7.03
2023-01-26T19:07:00.473Z,8.30
2023-01-26T19:09:28.970Z,6.90
2023-01-26T19:11:56.161Z,8.13
2023-01-26T19:14:23.265Z,7.47
2023-01-26T19:16:49.845Z,6.33
2023-01-26T19:19:16.683Z,6.57
2023-01-26T19:21:43.219Z,6.43
2023-01-26T19:24:09.764Z,7.00
2023-01-26T19:26:36.290Z,5.80
2023-01-26T19:29:02.756Z,6.93
2023-01-26T19:31:29.425Z,6.47
2023-01-26T19:33:55.938Z,5.33
2023-01-26T19:36:23.378Z,6.47
2023-01-26T19:38:49.886Z,6.77
2023-01-26T19:41:16.401Z,6.20
2023-01-26T19:43:44.121Z,7.27
2023-01-26T19:46:11.687Z,6.17
2023-01-26T19:48:38.244Z,7.93
2023-01-26T19:51:05.221Z,7.00
2023-01-26T19:53:31.767Z,7.63
2023-01-26T19:55:59.744Z,7.60
2023-01-26T19:58:26.691Z,6.70
2023-01-26T20:00:53.196Z,7.30
2023-01-26T20:03:19.755Z,7.83
2023-01-26T20:05:46.247Z,6.97
2023-01-26T20:08:12.706Z,6.47
2023-01-26T20:10:39.231Z,5.77
2023-01-26T20:13:06.101Z,7.80
2023-01-26T20:15:34.422Z,8.27
2023-01-26T20:18:01.042Z,6.10
2023-01-26T20:20:27.527Z,7.47
2023-01-26T20:22:54.056Z,7.50
2023-01-26T20:25:20.607Z,6.00
2023-01-26T20:27:47.321Z,7.30
2023-01-26T20:30:14.766Z,7.33
2023-01-26T20:32:41.501Z,7.47
2023-01-26T20:35:08.591Z,6.97
2023-01-26T20:37:35.113Z,8.17
2023-01-26T20:40:01.683Z,7.57
2023-01-26T20:42:28.204Z,7.53
2023-01-26T20:44:57.310Z,7.13
2023-01-26T20:47:23.836Z,7.50
2023-01-26T20:49:50.760Z,6.00
2023-01-26T20:52:17.287Z,6.90
2023-01-26T20:54:43.794Z,9.17
2023-01-26T20:57:10.288Z,6.43
2023-01-26T20:59:36.926Z,6.87
2023-01-26T21:02:03.461Z,7.00
2023-01-26T21:04:31.975Z,7.10
2023-01-26T21:06:58.511Z,7.53
2023-01-26T21:09:25.041Z,7.13
2023-01-26T21:11:51.618Z,5.63
2023-01-26T21:14:18.105Z,6.10
2023-01-26T21:16:44.654Z,6.23
2023-01-26T21:19:11.155Z,5.60
2023-01-26T21:21:37.672Z,5.50
2023-01-26T21:24:04.169Z,6.37
2023-01-26T21:26:30.755Z,5.90
2023-01-26T21:28:57.306Z,5.40
2023-01-26T21:31:24.787Z,5.70
2023-01-26T21:33:51.330Z,5.63
2023-01-26T21:36:17.852Z,6.10
2023-01-26T21:38:44.335Z,6.67
2023-01-26T21:41:29.566Z,8.03
2023-01-26T21:43:56.167Z,6.50
2023-01-26T21:46:22.782Z,5.80
2023-01-26T21:48:49.319Z,5.23
2023-01-26T21:51:34.648Z,7.43
2023-01-26T21:54:01.990Z,5.80
2023-01-26T21:56:28.467Z,7.87
2023-01-26T21:58:57.168Z,6.30
2023-01-26T22:01:23.692Z,6.93
2023-01-26T22:03:50.201Z,6.30
2023-01-26T22:06:17.327Z,5.90
2023-01-26T22:08:43.819Z,5.07
2023-01-26T22:11:10.417Z,7.37
2023-01-26T22:13:36.943Z,4.80
2023-01-26T22:16:04.670Z,6.17
2023-01-26T22:18:31.294Z,5.60
2023-01-26T22:20:57.787Z,6.17
2023-01-26T22:23:24.284Z,6.13
2023-01-26T22:25:50.801Z,5.37
2023-01-26T22:28:17.387Z,7.37
2023-01-26T22:30:43.876Z,6.77
2023-01-26T22:33:10.386Z,6.70
2023-01-26T22:35:36.852Z,6.90
2023-01-26T22:38:03.363Z,6.57
2023-01-26T22:40:29.837Z,7.50
2023-01-26T22:42:56.299Z,7.90
2023-01-26T22:45:22.762Z,6.87
2023-01-26T22:47:49.393Z,7.10
2023-01-26T22:50:15.901Z,9.03
2023-01-26T22:52:42.401Z,9.00
2023-01-26T22:55:09.367Z,7.93
2023-01-26T22:57:35.849Z,9.40
2023-01-26T23:00:02.580Z,6.93
2023-01-26T23:02:29.133Z,7.27
2023-01-26T23:04:55.629Z,9.00
2023-01-26T23:07:22.104Z,8.90
2023-01-26T23:09:48.561Z,6.80
2023-01-26T23:12:15.027Z,7.80
2023-01-26T23:14:41.515Z,7.57
2023-01-26T23:17:08.143Z,7.93
2023-01-26T23:19:34.619Z,9.47
2023-01-26T23:22:01.118Z,8.80
2023-01-26T23:24:27.645Z,8.27
2023-01-26T23:26:54.178Z,9.77
2023-01-26T23:29:20.674Z,11.23
2023-01-26T23:31:47.164Z,9.70
2023-01-26T23:34:13.672Z,8.40
2023-01-26T23:36:40.424Z,9.30
2023-01-26T23:39:07.141Z,8.10
2023-01-26T23:41:33.631Z,10.23
2023-01-26T23:44:00.131Z,10.67
2023-01-26T23:46:26.655Z,12.00
2023-01-26T23:48:53.135Z,10.80
2023-01-26T23:51:19.634Z,11.90
2023-01-26T23:53:46.165Z,10.87
2023-01-26T23:56:12.634Z,9.87
2023-01-26T23:58:39.142Z,10.83
